createdAt,value
2018-09-06T00:00:17.210Z,15.50
2018-09-06T00:02:44.979Z,15.60
2018-09-06T00:05:12.784Z,15.50
2018-09-06T00:07:40.542Z,15.60
2018-09-06T00:10:08.481Z,15.50
2018-09-06T00:12:36.239Z,15.50
2018-09-06T00:15:04.109Z,15.40
2018-09-06T00:17:31.902Z,15.40
2018-09-06T00:19:59.923Z,15.40
2018-09-06T00:22:27.770Z,15.40
2018-09-06T00:24:55.549Z,15.30
2018-09-06T00:27:23.499Z,15.30
2018-09-06T00:29:51.253Z,15.20
2018-09-06T00:32:19.371Z,15.20
2018-09-06T00:34:47.260Z,15.20
2018-09-06T00:37:15.134Z,15.10
2018-09-06T00:39:42.914Z,15.00
2018-09-06T00:42:10.818Z,15.00
2018-09-06T00:44:38.607Z,15.00
2018-09-06T00:47:06.407Z,14.90
2018-09-06T00:49:34.160Z,14.90
2018-09-06T00:52:01.971Z,14.90
2018-09-06T00:54:29.807Z,14.90
2018-09-06T00:56:57.773Z,14.80
2018-09-06T00:59:25.549Z,14.80
2018-09-06T01:01:54.363Z,14.80
2018-09-06T01:04:22.226Z,14.70
2018-09-06T01:06:50.064Z,14.70
2018-09-06T01:09:18.080Z,14.70
2018-09-06T01:11:45.886Z,14.60
2018-09-06T01:14:13.686Z,14.70
2018-09-06T01:16:41.468Z,14.70
2018-09-06T01:19:09.250Z,14.70
2018-09-06T01:21:36.963Z,14.70
2018-09-06T01:24:04.701Z,14.70
2018-09-06T01:26:32.411Z,14.70
2018-09-06T01:29:00.187Z,14.60
2018-09-06T01:31:27.849Z,14.60
2018-09-06T01:33:55.552Z,14.60
2018-09-06T01:36:28.952Z,14.50
2018-09-06T01:38:56.709Z,14.50
2018-09-06T01:41:24.580Z,14.50
2018-09-06T01:43:52.378Z,14.40
2018-09-06T01:46:20.115Z,14.40
2018-09-06T01:48:47.858Z,14.40
2018-09-06T01:51:15.671Z,14.40
2018-09-06T01:53:43.382Z,14.40
2018-09-06T01:56:11.154Z,14.40
2018-09-06T01:58:38.923Z,14.30
2018-09-06T02:01:06.680Z,14.30
2018-09-06T02:03:34.474Z,14.30
2018-09-06T02:06:02.445Z,14.30
2018-09-06T02:08:30.291Z,14.30
2018-09-06T02:10:57.938Z,14.30
2018-09-06T02:13:25.725Z,14.30
2018-09-06T02:15:53.528Z,14.20
2018-09-06T02:18:21.325Z,14.10
2018-09-06T02:20:49.106Z,14.10
2018-09-06T02:23:16.914Z,14.10
2018-09-06T02:25:44.678Z,14.10
2018-09-06T02:28:12.424Z,14.10
2018-09-06T02:30:40.162Z,14.00
2018-09-06T02:33:07.894Z,14.00
2018-09-06T02:35:35.668Z,14.00
2018-09-06T02:38:03.468Z,14.00
2018-09-06T02:40:36.851Z,13.90
2018-09-06T02:43:04.604Z,13.90
2018-09-06T02:45:32.304Z,13.80
2018-09-06T02:48:00.114Z,13.80
2018-09-06T02:50:33.424Z,13.70
2018-09-06T02:53:01.178Z,13.70
2018-09-06T02:55:29.462Z,13.70
2018-09-06T02:57:57.866Z,13.70
2018-09-06T03:00:29.935Z,13.70
2018-09-06T03:02:57.812Z,13.70
2018-09-06T03:05:26.210Z,13.70
2018-09-06T03:07:55.329Z,13.70
2018-09-06T03:10:23.495Z,13.70
2018-09-06T03:12:52.050Z,13.70
2018-09-06T03:15:19.987Z,13.60
2018-09-06T03:17:48.039Z,13.60
2018-09-06T03:20:16.215Z,13.60
2018-09-06T03:22:43.927Z,13.50
2018-09-06T03:25:11.686Z,13.50
2018-09-06T03:27:39.431Z,13.60
2018-09-06T03:30:07.194Z,13.50
2018-09-06T03:32:34.874Z,13.40
2018-09-06T03:35:02.654Z,13.40
2018-09-06T03:37:30.459Z,13.40
2018-09-06T03:39:58.242Z,13.40
2018-09-06T03:42:25.925Z,13.30
2018-09-06T03:44:53.646Z,13.30
2018-09-06T03:47:21.403Z,13.30
2018-09-06T03:49:49.161Z,13.30
2018-09-06T03:52:16.897Z,13.30
2018-09-06T03:54:44.614Z,13.30
2018-09-06T03:57:12.354Z,13.30
2018-09-06T03:59:40.102Z,13.30
2018-09-06T04:02:07.906Z,13.30
2018-09-06T04:04:35.619Z,13.20
2018-09-06T04:07:03.465Z,13.20
2018-09-06T04:09:31.193Z,13.20
2018-09-06T04:11:58.950Z,13.20
2018-09-06T04:14:26.718Z,13.20
2018-09-06T04:16:54.542Z,13.20
2018-09-06T04:19:22.630Z,13.10
2018-09-06T04:21:50.442Z,13.10
2018-09-06T04:24:18.499Z,13.10
2018-09-06T04:26:46.224Z,13.10
2018-09-06T04:29:13.978Z,13.10
2018-09-06T04:31:41.741Z,13.10
2018-09-06T04:34:09.498Z,13.10
2018-09-06T04:36:37.306Z,13.10
2018-09-06T04:39:07.830Z,13.00
2018-09-06T04:41:35.529Z,13.10
2018-09-06T04:44:03.307Z,13.10
2018-09-06T04:46:31.053Z,13.10
2018-09-06T04:48:58.777Z,13.10
2018-09-06T04:51:26.498Z,13.00
2018-09-06T04:53:54.179Z,12.90
2018-09-06T04:56:21.893Z,12.90
2018-09-06T04:58:49.797Z,12.90
2018-09-06T05:01:17.466Z,13.00
2018-09-06T05:03:45.627Z,13.00
2018-09-06T05:06:13.693Z,13.10
2018-09-06T05:08:41.485Z,13.00
2018-09-06T05:11:09.246Z,13.10
2018-09-06T05:13:37.331Z,13.00
2018-09-06T05:16:05.158Z,13.10
2018-09-06T05:18:32.946Z,13.10
2018-09-06T05:21:00.723Z,13.10
2018-09-06T05:23:28.471Z,13.20
2018-09-06T05:25:56.197Z,13.20
2018-09-06T05:28:23.952Z,13.30
2018-09-06T05:30:51.767Z,13.30
2018-09-06T05:33:19.437Z,13.30
2018-09-06T05:35:47.190Z,13.30
2018-09-06T05:38:15.066Z,13.30
2018-09-06T05:40:42.804Z,13.40
2018-09-06T05:43:10.519Z,13.40
2018-09-06T05:45:38.344Z,13.40
2018-09-06T05:48:06.038Z,13.40
2018-09-06T05:50:33.920Z,13.40
2018-09-06T05:53:02.260Z,13.50
2018-09-06T05:55:30.414Z,13.50
2018-09-06T05:57:58.167Z,13.50
2018-09-06T06:00:31.463Z,13.50
2018-09-06T06:18:45.190Z,13.50
2018-09-06T06:21:13.006Z,13.50
2018-09-06T06:23:40.710Z,13.50
2018-09-06T06:26:08.529Z,13.50
2018-09-06T06:28:36.237Z,13.60
2018-09-06T06:31:03.943Z,13.70
2018-09-06T06:33:31.653Z,13.80
2018-09-06T06:35:59.391Z,13.90
2018-09-06T06:38:27.117Z,14.00
2018-09-06T06:40:54.898Z,14.10
2018-09-06T06:43:22.629Z,14.20
2018-09-06T06:45:50.414Z,14.30
2018-09-06T06:48:18.204Z,14.40
2018-09-06T06:50:46.005Z,14.50
2018-09-06T06:53:13.715Z,14.60
2018-09-06T06:55:41.478Z,14.70
2018-09-06T06:58:09.190Z,14.80
2018-09-06T07:00:40.761Z,15.00
2018-09-06T07:03:09.549Z,15.00
2018-09-06T07:05:37.430Z,15.10
2018-09-06T07:08:05.877Z,15.20
2018-09-06T07:10:33.600Z,15.20
2018-09-06T07:13:01.356Z,15.30
2018-09-06T07:15:29.049Z,15.30
2018-09-06T07:17:57.101Z,15.30
2018-09-06T07:20:24.781Z,15.40
2018-09-06T07:22:52.575Z,15.40
2018-09-06T07:25:20.260Z,15.60
2018-09-06T07:27:48.128Z,15.70
2018-09-06T07:30:15.873Z,15.80
2018-09-06T07:32:43.581Z,15.90
2018-09-06T07:35:11.328Z,16.00
2018-09-06T07:37:39.022Z,16.10
2018-09-06T07:40:06.819Z,16.10
2018-09-06T07:42:34.540Z,16.20
2018-09-06T07:45:02.636Z,16.30
2018-09-06T07:47:30.328Z,16.20
2018-09-06T07:49:58.309Z,16.30
2018-09-06T07:52:25.992Z,16.30
2018-09-06T07:54:53.747Z,16.30
2018-09-06T07:57:21.529Z,16.40
2018-09-06T07:59:49.430Z,16.40
2018-09-06T08:02:17.150Z,16.50
2018-09-06T08:04:44.874Z,16.60
2018-09-06T08:07:12.582Z,16.70
2018-09-06T08:09:40.374Z,16.90
2018-09-06T08:12:08.191Z,16.90
2018-09-06T08:14:35.912Z,16.90
2018-09-06T08:17:03.758Z,17.00
2018-09-06T08:19:31.485Z,17.20
2018-09-06T08:21:59.305Z,17.40
2018-09-06T08:24:27.105Z,17.70
2018-09-06T08:26:54.808Z,17.80
2018-09-06T08:29:22.533Z,17.90
2018-09-06T08:31:50.315Z,18.10
2018-09-06T08:34:18.112Z,18.20
2018-09-06T08:36:46.042Z,18.30
2018-09-06T08:39:13.697Z,18.40
2018-09-06T08:41:41.491Z,18.50
2018-09-06T08:44:09.227Z,18.60
2018-09-06T08:46:37.010Z,18.70
2018-09-06T08:49:04.741Z,18.80
2018-09-06T08:51:32.586Z,18.90
2018-09-06T08:54:00.482Z,19.20
2018-09-06T08:56:28.245Z,19.30
2018-09-06T08:58:56.037Z,19.50
2018-09-06T09:01:29.286Z,19.60
2018-09-06T09:03:57.288Z,19.70
2018-09-06T09:06:25.027Z,19.90
2018-09-06T09:08:52.848Z,19.90
2018-09-06T09:11:20.501Z,19.90
2018-09-06T09:13:48.262Z,20.10
2018-09-06T09:16:16.064Z,20.20
2018-09-06T09:18:43.797Z,20.40
2018-09-06T09:21:11.655Z,20.60
2018-09-06T09:23:39.417Z,20.80
2018-09-06T09:26:07.208Z,21.00
2018-09-06T09:28:34.950Z,21.20
2018-09-06T09:31:02.617Z,21.40
2018-09-06T09:33:30.340Z,21.50
2018-09-06T09:35:58.132Z,21.60
2018-09-06T09:38:25.858Z,21.70
2018-09-06T09:40:53.589Z,21.90
2018-09-06T09:43:21.393Z,22.00
2018-09-06T09:45:49.113Z,22.20
2018-09-06T09:48:16.892Z,22.50
2018-09-06T09:53:11.845Z,22.80
2018-09-06T09:55:39.637Z,23.10
2018-09-06T09:58:07.395Z,23.30
2018-09-06T10:00:36.722Z,23.40
2018-09-06T10:03:10.030Z,23.60
2018-09-06T10:06:47.013Z,23.70
2018-09-06T10:09:15.956Z,23.80
2018-09-06T10:11:43.692Z,23.80
2018-09-06T10:14:11.399Z,23.80
2018-09-06T10:16:39.205Z,23.80
2018-09-06T10:19:06.876Z,23.80
2018-09-06T10:21:34.600Z,23.70
2018-09-06T10:24:02.320Z,23.60
2018-09-06T10:26:30.150Z,23.60
2018-09-06T10:28:57.821Z,23.90
2018-09-06T10:31:25.528Z,24.10
2018-09-06T10:33:53.293Z,24.30
2018-09-06T10:36:21.040Z,24.50
2018-09-06T10:38:48.906Z,24.70
2018-09-06T10:41:16.604Z,24.90
2018-09-06T10:43:45.574Z,25.10
2018-09-06T10:46:13.348Z,25.10
2018-09-06T10:48:41.134Z,25.10
2018-09-06T10:51:08.980Z,25.30
2018-09-06T10:53:36.777Z,25.60
2018-09-06T10:56:04.553Z,25.90
2018-09-06T10:58:32.443Z,26.00
2018-09-06T11:01:05.638Z,26.00
2018-09-06T11:03:33.339Z,26.10
2018-09-06T11:06:01.110Z,25.90
2018-09-06T11:08:29.082Z,25.70
2018-09-06T11:10:56.733Z,25.80
2018-09-06T11:13:24.532Z,25.80
2018-09-06T11:15:52.292Z,25.70
2018-09-06T11:18:20.051Z,25.50
2018-09-06T11:20:47.746Z,25.40
2018-09-06T11:23:15.415Z,25.10
2018-09-06T11:25:43.118Z,24.90
2018-09-06T11:28:10.882Z,24.80
2018-09-06T11:30:38.922Z,24.60
2018-09-06T11:33:07.283Z,24.40
2018-09-06T11:35:35.185Z,24.40
2018-09-06T11:38:03.694Z,24.40
2018-09-06T11:40:31.463Z,24.30
2018-09-06T11:42:59.170Z,24.10
2018-09-06T11:45:26.915Z,24.00
2018-09-06T11:47:54.940Z,24.00
2018-09-06T11:50:23.108Z,24.00
2018-09-06T11:52:51.210Z,24.00
2018-09-06T11:55:18.961Z,24.10
2018-09-06T11:57:46.854Z,24.20
2018-09-06T12:00:14.629Z,24.30
2018-09-06T12:02:42.408Z,24.50
2018-09-06T12:05:10.160Z,24.30
2018-09-06T12:07:37.855Z,24.40
2018-09-06T12:10:05.819Z,24.50
2018-09-06T12:12:33.615Z,24.50
2018-09-06T12:15:01.369Z,24.60
2018-09-06T12:17:29.119Z,24.70
2018-09-06T12:19:56.880Z,24.60
2018-09-06T12:22:24.692Z,24.40
2018-09-06T12:24:52.443Z,24.20
2018-09-06T12:27:20.146Z,24.10
2018-09-06T12:29:47.954Z,24.20
2018-09-06T12:32:15.657Z,24.20
2018-09-06T12:34:43.537Z,24.20
2018-09-06T12:37:13.270Z,24.20
2018-09-06T12:39:42.080Z,24.30
2018-09-06T12:42:10.028Z,24.30
2018-09-06T12:44:37.750Z,24.30
2018-09-06T12:47:05.752Z,24.30
2018-09-06T12:49:33.536Z,24.30
2018-09-06T12:52:01.264Z,24.40
2018-09-06T12:54:28.957Z,24.40
2018-09-06T12:56:56.675Z,24.50
2018-09-06T12:59:24.535Z,24.50
2018-09-06T13:01:52.237Z,24.60
2018-09-06T13:04:21.044Z,24.70
2018-09-06T13:06:48.895Z,24.70
2018-09-06T13:09:16.606Z,24.80
2018-09-06T13:11:44.459Z,24.80
2018-09-06T13:14:12.169Z,24.80
2018-09-06T13:16:40.065Z,24.90
2018-09-06T13:19:07.769Z,25.00
2018-09-06T13:21:35.427Z,25.00
2018-09-06T13:24:03.141Z,24.90
2018-09-06T13:26:30.949Z,24.90
2018-09-06T13:28:58.727Z,24.90
2018-09-06T13:31:26.551Z,24.90
2018-09-06T13:33:54.287Z,24.90
2018-09-06T13:36:22.057Z,24.90
2018-09-06T13:38:49.822Z,24.90
2018-09-06T13:41:17.679Z,24.80
2018-09-06T13:43:45.385Z,24.90
2018-09-06T13:46:13.160Z,24.90
2018-09-06T13:48:40.898Z,24.80
2018-09-06T13:51:08.580Z,24.80
2018-09-06T13:53:36.394Z,24.80
2018-09-06T13:56:04.216Z,24.80
2018-09-06T13:58:32.102Z,24.70
2018-09-06T14:00:59.820Z,24.70
2018-09-06T14:03:27.547Z,24.70
2018-09-06T14:05:55.346Z,24.70
2018-09-06T14:08:23.095Z,24.70
2018-09-06T14:10:51.079Z,24.60
2018-09-06T14:13:18.775Z,24.60
2018-09-06T14:15:46.435Z,24.50
2018-09-06T14:18:14.171Z,24.50
2018-09-06T14:20:41.929Z,24.50
2018-09-06T14:23:09.956Z,24.50
2018-09-06T14:25:37.608Z,24.50
2018-09-06T14:28:05.331Z,24.40
2018-09-06T14:30:33.098Z,24.40
2018-09-06T14:33:00.814Z,24.40
2018-09-06T14:35:28.697Z,24.30
2018-09-06T14:37:56.346Z,24.20
2018-09-06T14:40:24.049Z,24.00
2018-09-06T14:42:51.824Z,24.00
2018-09-06T14:45:20.477Z,23.90
2018-09-06T14:47:48.202Z,23.90
2018-09-06T14:50:16.071Z,23.80
2018-09-06T14:52:44.178Z,23.80
2018-09-06T14:55:11.903Z,23.70
2018-09-06T14:57:39.590Z,23.60
2018-09-06T15:00:07.541Z,23.50
2018-09-06T15:02:35.242Z,23.40
2018-09-06T15:05:02.955Z,23.30
2018-09-06T15:07:30.710Z,23.10
2018-09-06T15:09:58.701Z,23.00
2018-09-06T15:12:27.010Z,22.80
2018-09-06T15:14:54.688Z,22.60
2018-09-06T15:17:22.443Z,22.40
2018-09-06T15:19:50.254Z,22.20
2018-09-06T15:22:17.947Z,21.80
2018-09-06T15:24:45.867Z,21.60
2018-09-06T15:27:13.577Z,21.40
2018-09-06T15:29:41.243Z,21.20
2018-09-06T15:32:08.973Z,21.00
2018-09-06T15:34:36.679Z,20.80
2018-09-06T15:37:04.445Z,20.80
2018-09-06T15:39:32.198Z,20.80
2018-09-06T15:41:59.935Z,20.90
2018-09-06T15:44:28.795Z,21.00
2018-09-06T15:46:56.701Z,21.10
2018-09-06T15:49:24.487Z,21.10
2018-09-06T15:51:52.181Z,20.90
2018-09-06T15:54:19.946Z,20.90
2018-09-06T15:56:47.659Z,20.80
2018-09-06T15:59:15.595Z,20.70
2018-09-06T16:01:43.348Z,20.70
2018-09-06T16:04:16.430Z,20.70
2018-09-06T16:06:44.114Z,20.60
2018-09-06T16:09:11.985Z,20.60
2018-09-06T16:11:39.676Z,20.50
2018-09-06T16:14:59.216Z,20.40
2018-09-06T16:17:27.039Z,20.20
2018-09-06T16:19:54.849Z,19.80
2018-09-06T16:22:24.051Z,19.70
2018-09-06T16:24:51.980Z,19.70
2018-09-06T16:27:20.553Z,19.70
2018-09-06T16:29:48.757Z,19.70
2018-09-06T16:32:16.532Z,19.70
2018-09-06T16:34:45.210Z,19.70
2018-09-06T16:37:12.979Z,19.60
2018-09-06T16:39:40.697Z,19.60
2018-09-06T16:42:09.163Z,19.50
2018-09-06T16:44:37.627Z,19.50
2018-09-06T16:47:06.251Z,19.50
2018-09-06T16:49:34.690Z,19.60
2018-09-06T16:52:02.779Z,19.60
2018-09-06T16:54:30.699Z,19.50
2018-09-06T16:56:59.011Z,19.40
2018-09-06T16:59:27.748Z,19.40
2018-09-06T17:01:55.433Z,19.40
2018-09-06T17:04:23.234Z,19.20
2018-09-06T17:06:51.258Z,19.20
2018-09-06T17:09:20.430Z,19.20
2018-09-06T17:11:48.399Z,19.20
2018-09-06T17:14:16.355Z,19.20
2018-09-06T17:16:44.057Z,19.20
2018-09-06T17:19:11.750Z,19.20
2018-09-06T17:21:39.475Z,19.20
2018-09-06T17:24:07.255Z,19.20
2018-09-06T17:26:35.106Z,19.10
2018-09-06T17:29:03.034Z,19.20
2018-09-06T17:31:30.948Z,19.20
2018-09-06T17:33:58.641Z,19.20
2018-09-06T17:36:26.337Z,19.00
2018-09-06T17:38:54.108Z,18.90
2018-09-06T17:41:22.114Z,18.80
2018-09-06T17:43:49.939Z,18.80
2018-09-06T17:46:17.690Z,18.80
2018-09-06T17:48:45.387Z,18.80
2018-09-06T17:51:13.307Z,18.70
2018-09-06T17:53:41.348Z,18.70
2018-09-06T17:56:09.644Z,18.60
2018-09-06T17:58:38.246Z,18.50
2018-09-06T18:01:25.696Z,18.50
2018-09-06T18:03:53.699Z,18.50
2018-09-06T18:06:21.584Z,18.60
2018-09-06T18:08:49.630Z,18.60
2018-09-06T18:11:17.359Z,18.60
2018-09-06T18:13:45.612Z,18.70
2018-09-06T18:16:13.395Z,18.60
2018-09-06T18:18:43.886Z,18.60
2018-09-06T18:21:11.566Z,18.60
2018-09-06T18:23:41.558Z,18.60
2018-09-06T18:26:09.762Z,18.50
2018-09-06T18:28:39.901Z,18.50
2018-09-06T18:31:12.525Z,18.50
2018-09-06T18:33:41.782Z,18.50
2018-09-06T18:36:09.551Z,18.40
2018-09-06T18:38:37.887Z,18.40
2018-09-06T18:41:09.246Z,18.40
2018-09-06T18:43:37.167Z,18.40
2018-09-06T18:46:04.926Z,18.30
2018-09-06T18:48:32.735Z,18.30
2018-09-06T18:51:00.760Z,18.30
2018-09-06T18:53:28.603Z,18.30
2018-09-06T18:55:56.306Z,18.30
2018-09-06T18:58:24.090Z,18.30
2018-09-06T19:00:52.072Z,18.20
2018-09-06T19:03:20.456Z,18.20
2018-09-06T19:05:48.775Z,18.00
2018-09-06T19:08:16.812Z,17.90
2018-09-06T19:10:44.606Z,17.80
2018-09-06T19:13:12.436Z,17.70
2018-09-06T19:15:40.210Z,17.70
2018-09-06T19:18:08.038Z,17.80
2018-09-06T19:20:35.814Z,17.90
2018-09-06T19:23:03.817Z,17.90
2018-09-06T19:25:31.598Z,18.00
2018-09-06T19:27:59.307Z,18.00
2018-09-06T19:30:27.241Z,18.00
2018-09-06T19:32:55.203Z,18.00
2018-09-06T19:35:23.373Z,18.00
2018-09-06T19:37:51.275Z,18.00
2018-09-06T19:40:19.102Z,18.00
2018-09-06T19:42:46.881Z,18.10
2018-09-06T19:45:14.673Z,18.10
2018-09-06T19:47:42.396Z,18.00
2018-09-06T19:50:10.263Z,18.00
2018-09-06T19:52:38.037Z,18.00
2018-09-06T19:55:06.121Z,17.90
2018-09-06T19:57:34.248Z,17.90
2018-09-06T20:00:02.218Z,17.90
2018-09-06T20:02:30.149Z,17.80
2018-09-06T20:04:58.096Z,17.80
2018-09-06T20:07:26.261Z,17.80
2018-09-06T20:09:53.983Z,17.70
2018-09-06T20:12:21.984Z,17.70
2018-09-06T20:14:49.925Z,17.60
2018-09-06T20:17:17.676Z,17.50
2018-09-06T20:19:45.405Z,17.50
2018-09-06T20:22:13.670Z,17.50
2018-09-06T20:24:41.498Z,17.50
2018-09-06T20:27:09.228Z,17.60
2018-09-06T20:29:37.092Z,17.60
2018-09-06T20:32:06.355Z,17.60
2018-09-06T20:34:34.099Z,17.60
2018-09-06T20:37:02.062Z,17.60
2018-09-06T20:39:30.039Z,17.60
2018-09-06T20:41:57.910Z,17.60
2018-09-06T20:44:26.246Z,17.60
2018-09-06T20:46:53.968Z,17.60
2018-09-06T20:49:21.679Z,17.50
2018-09-06T20:51:49.543Z,17.50
2018-09-06T20:54:17.346Z,17.60
2018-09-06T20:56:45.049Z,17.50
2018-09-06T20:59:12.699Z,17.50
2018-09-06T21:01:40.463Z,17.50
2018-09-06T21:04:08.184Z,17.50
2018-09-06T21:06:35.873Z,17.40
2018-09-06T21:09:05.136Z,17.40
2018-09-06T21:11:32.899Z,17.40
2018-09-06T21:14:00.707Z,17.40
2018-09-06T21:16:28.546Z,17.40
2018-09-06T21:18:56.322Z,17.40
2018-09-06T21:21:24.118Z,17.40
2018-09-06T21:23:51.891Z,17.30
2018-09-06T21:26:19.628Z,17.30
2018-09-06T21:28:47.281Z,17.30
2018-09-06T21:31:15.045Z,17.30
2018-09-06T21:33:42.838Z,17.30
2018-09-06T21:36:10.530Z,17.30
2018-09-06T21:38:38.285Z,17.20
2018-09-06T21:41:06.130Z,17.20
2018-09-06T21:43:33.880Z,17.20
2018-09-06T21:46:01.628Z,17.20
2018-09-06T21:48:29.364Z,17.20
2018-09-06T21:50:57.012Z,17.20
2018-09-06T21:53:24.910Z,17.20
2018-09-06T21:55:52.611Z,17.10
2018-09-06T21:58:20.427Z,17.20
2018-09-06T22:00:48.307Z,17.20
2018-09-06T22:03:21.771Z,17.20
2018-09-06T22:05:49.582Z,17.20
2018-09-06T22:08:17.261Z,17.10
2018-09-06T22:10:45.090Z,17.10
2018-09-06T22:13:12.809Z,17.10
2018-09-06T22:15:40.577Z,17.00
2018-09-06T22:18:13.380Z,17.00
2018-09-06T22:20:41.122Z,17.00
2018-09-06T22:23:08.905Z,16.90
2018-09-06T22:25:36.748Z,16.90
2018-09-06T22:28:04.537Z,16.90
2018-09-06T22:30:32.305Z,16.90
2018-09-06T22:33:00.049Z,16.80
2018-09-06T22:35:27.772Z,16.80
2018-09-06T22:37:55.648Z,16.90
2018-09-06T22:40:23.470Z,16.90
2018-09-06T22:42:51.178Z,16.90
2018-09-06T22:45:18.938Z,16.90
2018-09-06T22:47:46.682Z,16.90
2018-09-06T22:50:14.381Z,16.90
2018-09-06T22:52:42.133Z,16.90
2018-09-06T22:55:09.859Z,16.90
2018-09-06T22:57:37.674Z,16.90
2018-09-06T23:00:05.812Z,16.80
2018-09-06T23:02:39.110Z,16.80
2018-09-06T23:05:06.942Z,16.80
2018-09-06T23:07:34.738Z,16.80
2018-09-06T23:10:03.141Z,16.80
2018-09-06T23:12:30.878Z,16.80
2018-09-06T23:14:58.638Z,16.80
2018-09-06T23:17:26.277Z,16.80
2018-09-06T23:19:54.042Z,16.70
2018-09-06T23:22:21.786Z,16.70
2018-09-06T23:24:49.577Z,16.70
2018-09-06T23:27:17.278Z,16.70
2018-09-06T23:29:45.040Z,16.60
2018-09-06T23:32:12.809Z,16.60
2018-09-06T23:34:40.732Z,16.60
2018-09-06T23:37:08.480Z,16.60
2018-09-06T23:39:36.451Z,16.60
2018-09-06T23:42:04.328Z,16.50
2018-09-06T23:44:32.139Z,16.50
2018-09-06T23:46:59.938Z,16.50
2018-09-06T23:49:27.975Z,16.50
2018-09-06T23:51:55.831Z,16.50
2018-09-06T23:54:23.794Z,16.40
2018-09-06T23:56:51.589Z,16.40
2018-09-06T23:59:19.390Z,16.40
